Time;durP1;ratioP1;P1;durP2;ratioP2;P2;SDS_P1;SDS_P2;PMS_P1;PMS_P2;Temp;Humidity;BMP_temperature;BMP_pressure;BME280_temperature;BME280_humidity;BME280_pressure;Samples;Min_cycle;Max_cycle;Signal;HPM_P1;HPM_P2
2022/04/30 00:00:40;;;;;;;63.72;34.50;;;5.90;99.90;;;;;;5053494;28;20044;-50
2022/04/30 00:03:07;;;;;;;69.65;34.20;;;5.90;99.90;;;;;;5071379;28;20140;-51
2022/04/30 00:05:34;;;;;;;68.50;33.63;;;5.90;99.90;;;;;;5070373;28;20032;-51
2022/04/30 00:08:01;;;;;;;70.03;34.13;;;5.90;99.90;;;;;;5070205;28;20048;-53
2022/04/30 00:10:27;;;;;;;79.72;39.85;;;5.80;99.90;;;;;;5070750;28;20040;-51
2022/04/30 00:12:53;;;;;;;79.47;39.58;;;5.90;99.90;;;;;;5069342;28;20033;-53
2022/04/30 00:15:20;;;;;;;87.45;40.92;;;5.70;99.90;;;;;;5071427;28;20078;-52
2022/04/30 00:17:46;;;;;;;88.70;43.40;;;5.70;99.90;;;;;;5071346;28;20041;-50
2022/04/30 00:20:13;;;;;;;87.55;41.88;;;5.80;99.90;;;;;;5071421;28;20032;-51
2022/04/30 00:22:38;;;;;;;86.68;41.67;;;5.70;99.90;;;;;;5071332;28;20463;-51
2022/04/30 00:25:05;;;;;;;86.82;41.72;;;5.60;99.90;;;;;;5070546;28;20024;-53
2022/04/30 00:27:31;;;;;;;89.50;42.70;;;5.50;99.90;;;;;;5071031;28;20077;-52
2022/04/30 00:29:58;;;;;;;91.10;44.13;;;5.50;99.90;;;;;;5052703;28;20021;-52
2022/04/30 00:32:24;;;;;;;88.53;42.05;;;5.60;99.90;;;;;;5052718;28;20107;-51
2022/04/30 00:34:50;;;;;;;90.82;42.17;;;5.70;99.90;;;;;;5071028;28;20497;-52
2022/04/30 00:37:16;;;;;;;92.75;43.83;;;5.70;99.90;;;;;;5070721;28;20482;-51
2022/04/30 00:39:42;;;;;;;104.78;48.10;;;5.80;99.90;;;;;;5070957;28;20020;-50
2022/04/30 00:42:14;;;;;;;87.40;43.13;;;5.70;99.90;;;;;;5070540;28;20047;-52
2022/04/30 00:44:40;;;;;;;93.70;44.10;;;5.50;99.90;;;;;;5068721;28;20027;-51
2022/04/30 00:47:05;;;;;;;101.88;43.50;;;5.50;99.90;;;;;;5070708;28;20372;-52
2022/04/30 00:49:31;;;;;;;107.85;47.15;;;5.40;99.90;;;;;;5070685;28;20020;-52
2022/04/30 00:52:02;;;;;;;118.65;48.78;;;5.30;99.90;;;;;;5070940;28;20335;-51
2022/04/30 00:54:33;;;;;;;96.38;42.53;;;5.20;99.90;;;;;;5070545;28;20024;-50
2022/04/30 00:57:01;;;;;;;104.22;44.08;;;5.20;99.90;;;;;;5070499;28;20099;-55
2022/04/30 00:59:30;;;;;;;102.45;44.22;;;5.10;99.90;;;;;;5051656;28;20025;-51
2022/04/30 01:01:59;;;;;;;104.80;43.20;;;5.10;99.90;;;;;;5036227;28;20036;-50
2022/04/30 01:04:26;;;;;;;100.88;43.47;;;5.10;99.90;;;;;;5052287;28;20025;-52
2022/04/30 01:06:58;;;;;;;94.47;42.33;;;5.20;99.90;;;;;;5070086;28;20031;-52
2022/04/30 01:09:28;;;;;;;82.63;37.25;;;5.20;99.90;;;;;;5070367;28;20512;-51
2022/04/30 01:12:00;;;;;;;83.63;37.78;;;4.90;99.90;;;;;;5067804;28;20036;-50
2022/04/30 01:14:29;;;;;;;79.47;38.20;;;4.80;99.90;;;;;;5070603;28;20048;-51
2022/04/30 01:16:57;;;;;;;91.18;39.28;;;4.80;99.90;;;;;;5067944;28;20020;-50
2022/04/30 01:19:24;;;;;;;74.15;37.38;;;5.00;99.90;;;;;;5070178;28;20048;-52
2022/04/30 01:21:57;;;;;;;82.93;37.42;;;5.00;99.90;;;;;;5071307;28;20024;-49
2022/04/30 01:24:25;;;;;;;85.35;39.88;;;4.80;99.90;;;;;;5069954;28;20096;-51
2022/04/30 01:26:52;;;;;;;83.80;37.05;;;4.70;99.90;;;;;;5070203;28;20030;-52
2022/04/30 01:29:19;;;;;;;82.15;37.50;;;4.70;99.90;;;;;;5069795;28;20375;-49
2022/04/30 01:37:22;;;;;;;84.20;38.33;;;4.60;99.90;;;;;;5069101;28;20077;-50
2022/04/30 01:39:52;;;;;;;86.45;39.35;;;4.40;99.90;;;;;;5069810;28;20400;-52
2022/04/30 01:42:18;;;;;;;77.15;36.28;;;4.60;99.90;;;;;;5069724;28;20037;-51
2022/04/30 01:44:46;;;;;;;82.95;37.78;;;4.80;99.90;;;;;;5051889;28;20069;-52
2022/04/30 01:47:16;;;;;;;76.70;36.03;;;4.70;99.90;;;;;;5069730;28;20121;-50
2022/04/30 01:49:42;;;;;;;76.70;36.42;;;4.60;99.90;;;;;;5069490;28;20020;-52
2022/04/30 01:52:09;;;;;;;75.70;33.17;;;4.60;99.90;;;;;;5069384;28;20039;-50
2022/04/30 01:54:35;;;;;;;77.05;34.40;;;4.60;99.90;;;;;;5069255;28;20103;-52
2022/04/30 01:57:01;;;;;;;71.50;34.67;;;4.40;99.90;;;;;;5069390;28;20032;-50
2022/04/30 01:59:28;;;;;;;65.40;34.03;;;4.40;99.90;;;;;;5069656;28;20138;-50
2022/04/30 02:01:55;;;;;;;69.65;31.55;;;4.50;99.90;;;;;;5069656;28;20035;-50
2022/04/30 02:04:21;;;;;;;61.88;30.65;;;4.50;99.90;;;;;;5051751;28;20533;-51
2022/04/30 02:06:47;;;;;;;70.90;34.63;;;4.50;99.90;;;;;;5069849;28;20059;-52
2022/04/30 02:09:14;;;;;;;70.80;33.33;;;4.50;99.90;;;;;;5069007;28;20444;-51
2022/04/30 02:11:44;;;;;;;70.88;33.95;;;4.50;99.90;;;;;;5069788;28;20043;-50
2022/04/30 02:14:13;;;;;;;65.80;32.28;;;4.50;99.90;;;;;;5069171;28;20024;-51
2022/04/30 02:16:40;;;;;;;62.80;32.13;;;4.30;99.90;;;;;;5069588;28;20025;-52
2022/04/30 02:19:07;;;;;;;74.20;33.20;;;4.50;99.90;;;;;;5068752;28;20051;-51
2022/04/30 02:21:33;;;;;;;69.97;33.13;;;4.50;99.90;;;;;;5051469;28;20520;-52
2022/04/30 02:24:00;;;;;;;68.03;33.05;;;4.30;99.90;;;;;;5069123;28;20494;-51
2022/04/30 02:26:28;;;;;;;59.10;30.10;;;4.20;99.90;;;;;;5069258;28;20048;-52
2022/04/30 02:28:58;;;;;;;64.43;27.52;;;4.20;99.90;;;;;;5068777;28;20459;-49
2022/04/30 02:31:35;;;;;;;60.60;28.98;;;4.00;99.90;;;;;;5069557;28;20036;-51
2022/04/30 02:34:00;;;;;;;67.35;31.80;;;4.10;99.90;;;;;;5069752;28;20028;-50
2022/04/30 02:36:26;;;;;;;57.75;30.38;;;4.20;99.90;;;;;;5065755;28;20466;-51
2022/04/30 02:39:00;;;;;;;56.97;27.38;;;4.20;99.90;;;;;;5063370;28;20502;-49
2022/04/30 02:41:28;;;;;;;51.53;26.55;;;4.10;99.90;;;;;;5068838;28;20035;-50
2022/04/30 02:43:54;;;;;;;46.00;23.58;;;4.10;99.90;;;;;;5069242;28;20039;-52
2022/04/30 02:46:20;;;;;;;50.58;25.33;;;3.90;99.90;;;;;;5069369;28;20021;-50
2022/04/30 02:48:47;;;;;;;43.00;24.00;;;3.80;99.90;;;;;;5052465;28;20048;-55
2022/04/30 02:51:15;;;;;;;50.10;25.58;;;3.70;99.90;;;;;;5055329;28;20032;-50
2022/04/30 02:53:41;;;;;;;51.72;26.05;;;3.80;99.90;;;;;;5073377;28;20024;-51
2022/04/30 02:56:09;;;;;;;49.73;26.93;;;3.70;99.90;;;;;;5073285;28;20020;-50
2022/04/30 03:01:20;;;;;;;53.72;28.83;;;3.70;99.90;;;;;;5073127;28;20047;-53
2022/04/30 03:03:50;;;;;;;58.67;30.98;;;3.50;99.90;;;;;;5073409;28;20384;-51
2022/04/30 03:06:17;;;;;;;64.05;30.83;;;3.70;99.90;;;;;;5073098;28;20111;-52
2022/04/30 03:08:48;;;;;;;;;;;3.60;99.90;;;;;;5073368;28;20025;-51
2022/04/30 03:11:14;;;;;;;59.22;31.60;;;3.50;99.90;;;;;;5073053;28;20295;-50
2022/04/30 03:13:40;;;;;;;63.00;30.65;;;3.60;99.90;;;;;;5072999;28;20484;-52
2022/04/30 03:21:46;;;;;;;66.57;33.40;;;3.70;99.90;;;;;;5072569;28;20071;-51
2022/04/30 03:24:21;;;;;;;65.03;34.05;;;3.60;99.90;;;;;;5072645;28;20036;-50
2022/04/30 03:26:48;;;;;;;57.92;30.35;;;3.70;99.90;;;;;;5072837;28;20025;-50
2022/04/30 03:29:15;;;;;;;57.05;30.40;;;3.70;99.90;;;;;;5072558;28;20024;-50
2022/04/30 03:31:43;;;;;;;50.33;29.73;;;3.70;99.90;;;;;;5072840;28;20039;-52
2022/04/30 03:34:10;;;;;;;55.22;28.90;;;3.70;99.90;;;;;;5072553;28;20048;-50
2022/04/30 03:36:36;;;;;;;60.47;29.17;;;3.70;99.90;;;;;;5072524;28;20059;-50
2022/04/30 03:39:05;;;;;;;51.25;26.65;;;3.60;99.90;;;;;;5072653;28;20107;-52
2022/04/30 03:41:31;;;;;;;52.42;28.00;;;3.60;99.90;;;;;;5072037;28;20045;-51
2022/04/30 03:43:57;;;;;;;54.60;28.38;;;3.70;99.90;;;;;;5072491;28;20070;-50
2022/04/30 03:46:23;;;;;;;52.15;27.92;;;3.80;99.90;;;;;;5072806;28;20082;-50
2022/04/30 03:48:53;;;;;;;52.35;28.08;;;3.70;99.90;;;;;;5072392;28;20020;-50
2022/04/30 03:51:25;;;;;;;50.00;27.15;;;3.70;99.90;;;;;;5072848;28;20024;-50
2022/04/30 03:53:52;;;;;;;53.30;27.75;;;3.60;99.90;;;;;;5071826;28;20020;-51
2022/04/30 03:56:22;;;;;;;49.45;25.35;;;3.70;99.90;;;;;;5072390;28;20112;-52
2022/04/30 03:58:48;;;;;;;59.40;27.60;;;3.70;99.90;;;;;;5072375;28;20467;-50
2022/04/30 04:01:18;;;;;;;49.70;27.33;;;3.90;99.90;;;;;;5071023;28;20040;-51
2022/04/30 04:03:44;;;;;;;58.30;27.23;;;3.90;99.90;;;;;;5072122;28;20291;-49
2022/04/30 04:06:10;;;;;;;50.40;27.58;;;3.60;99.90;;;;;;5072209;28;20036;-49
2022/04/30 04:08:36;;;;;;;55.65;28.52;;;3.50;99.90;;;;;;5072185;28;20025;-51
2022/04/30 04:11:03;;;;;;;59.65;31.23;;;3.30;99.90;;;;;;5071706;28;20467;-52
2022/04/30 04:18:57;;;;;;;64.20;31.92;;;3.90;99.90;;;;;;5071317;28;20072;-52
2022/04/30 04:21:23;;;;;;;53.90;28.90;;;4.20;99.90;;;;;;5071826;28;20543;-52
2022/04/30 04:26:33;;;;;;;51.78;27.52;;;4.30;99.90;;;;;;5071900;28;20445;-49
2022/04/30 04:28:59;;;;;;;49.17;26.13;;;4.30;99.90;;;;;;5071580;28;20025;-51
2022/04/30 04:31:25;;;;;;;50.03;27.98;;;4.30;99.90;;;;;;5071517;28;20486;-51
2022/04/30 04:33:51;;;;;;;49.90;26.73;;;4.40;99.90;;;;;;5071277;28;20020;-51
2022/04/30 04:36:18;;;;;;;59.03;28.50;;;4.50;99.90;;;;;;5071696;28;20036;-52
2022/04/30 04:38:44;;;;;;;50.00;26.33;;;4.50;99.90;;;;;;5053125;28;20051;-50
2022/04/30 04:41:10;;;;;;;50.20;26.75;;;4.50;99.90;;;;;;5071431;28;20406;-51
2022/04/30 04:43:36;;;;;;;51.78;27.42;;;4.70;99.90;;;;;;5071576;28;20103;-52
2022/04/30 04:46:06;;;;;;;54.72;27.80;;;4.80;99.90;;;;;;5071053;28;20078;-50
2022/04/30 04:48:33;;;;;;;45.47;25.55;;;4.80;99.90;;;;;;5071203;28;20028;-52
2022/04/30 04:50:59;;;;;;;;;;;4.90;99.90;;;;;;5053540;28;20047;-50
2022/04/30 04:53:25;;;;;;;49.20;26.45;;;5.00;99.90;;;;;;5070748;28;19904;-51
2022/04/30 04:55:51;;;;;;;55.80;27.48;;;5.20;99.90;;;;;;5070841;28;20104;-50
2022/04/30 04:58:17;;;;;;;50.67;27.48;;;5.20;99.90;;;;;;5071046;28;20107;-50
2022/04/30 05:00:43;;;;;;;53.35;26.40;;;5.40;99.90;;;;;;5053055;28;20072;-54
2022/04/30 05:03:09;;;;;;;54.08;25.75;;;5.60;99.90;;;;;;5070549;28;20094;-59
2022/04/30 05:05:35;;;;;;;58.63;27.80;;;5.80;99.90;;;;;;5053251;28;20027;-50
2022/04/30 05:08:02;;;;;;;53.47;27.03;;;5.90;99.90;;;;;;5071211;28;20040;-50
2022/04/30 05:10:27;;;;;;;54.77;27.70;;;6.00;99.90;;;;;;5071050;28;20104;-51
2022/04/30 05:12:53;;;;;;;53.15;28.40;;;6.10;99.90;;;;;;5070566;28;20111;-51
2022/04/30 05:15:19;;;;;;;59.85;28.95;;;6.30;99.90;;;;;;5070384;28;20024;-51
2022/04/30 05:17:44;;;;;;;65.72;30.75;;;6.40;99.90;;;;;;5052535;28;20087;-50
2022/04/30 05:20:10;;;;;;;58.95;30.33;;;6.50;99.90;;;;;;5070599;28;20027;-53
2022/04/30 05:22:36;;;;;;;58.80;30.80;;;6.60;99.90;;;;;;5070738;28;20403;-52
2022/04/30 05:25:02;;;;;;;61.83;30.85;;;6.70;99.90;;;;;;5070435;28;20119;-49
2022/04/30 05:27:27;;;;;;;70.03;34.88;;;6.80;99.90;;;;;;5052157;28;20040;-50
2022/04/30 05:29:53;;;;;;;66.65;32.05;;;7.00;99.90;;;;;;5070401;28;20034;-49
2022/04/30 05:32:19;;;;;;;63.45;32.38;;;7.10;99.90;;;;;;5069866;28;20089;-51
2022/04/30 05:34:45;;;;;;;57.25;30.85;;;7.20;99.90;;;;;;5070542;28;20021;-51
2022/04/30 05:37:12;;;;;;;75.03;31.23;;;7.30;99.90;;;;;;5070200;28;20040;-50
2022/04/30 05:39:37;;;;;;;60.92;31.10;;;7.40;99.90;;;;;;5070057;28;20103;-51
2022/04/30 05:42:03;;;;;;;67.20;34.30;;;7.50;99.90;;;;;;5070016;28;20729;-51
2022/04/30 05:44:29;;;;;;;60.45;32.60;;;7.60;99.90;;;;;;5069962;28;20028;-51
2022/04/30 05:46:55;;;;;;;60.85;33.00;;;7.80;99.90;;;;;;5070065;28;20028;-51
2022/04/30 05:49:21;;;;;;;63.30;32.92;;;7.80;99.90;;;;;;5069462;28;20021;-52
2022/04/30 05:51:46;;;;;;;56.53;27.15;;;7.90;99.90;;;;;;5069728;28;20043;-51
2022/04/30 05:54:12;;;;;;;54.40;28.85;;;8.10;99.90;;;;;;5070132;28;20694;-50
2022/04/30 05:56:38;;;;;;;54.25;28.05;;;8.20;99.90;;;;;;5069749;28;20039;-50
2022/04/30 05:59:03;;;;;;;56.45;27.75;;;8.40;99.90;;;;;;5069837;28;20626;-50
2022/04/30 06:01:29;;;;;;;62.00;31.65;;;8.50;99.90;;;;;;5069613;28;20746;-49
2022/04/30 06:03:55;;;;;;;61.20;29.35;;;8.60;99.90;;;;;;5069981;28;20078;-50
2022/04/30 06:06:21;;;;;;;64.45;31.95;;;8.70;99.90;;;;;;5069941;28;20484;-50
2022/04/30 06:08:47;;;;;;;62.75;31.98;;;8.80;99.90;;;;;;5069463;28;20027;-51
2022/04/30 06:11:13;;;;;;;64.95;32.83;;;9.00;99.90;;;;;;5069660;28;20561;-51
2022/04/30 06:13:39;;;;;;;53.85;29.75;;;9.20;99.90;;;;;;5069773;28;20032;-51
2022/04/30 06:16:05;;;;;;;51.67;27.08;;;9.30;99.90;;;;;;5069660;28;20033;-50
2022/04/30 06:18:31;;;;;;;43.92;23.92;;;9.50;99.90;;;;;;5068201;28;20045;-51
2022/04/30 06:20:57;;;;;;;46.85;23.30;;;9.60;99.90;;;;;;5069344;28;20029;-51
2022/04/30 06:23:23;;;;;;;45.65;23.83;;;9.80;99.90;;;;;;5069000;28;20021;-51
2022/04/30 06:25:49;;;;;;;46.80;23.55;;;10.10;99.90;;;;;;5069527;28;20025;-50
2022/04/30 06:28:15;;;;;;;42.78;22.98;;;10.30;99.90;;;;;;5069576;28;20032;-50
2022/04/30 06:30:43;;;;;;;41.10;21.42;;;10.40;99.90;;;;;;5069389;28;20062;-51
2022/04/30 06:33:09;;;;;;;41.55;21.77;;;10.60;99.90;;;;;;5069561;28;20081;-51
2022/04/30 06:35:37;;;;;;;41.03;20.90;;;10.80;99.90;;;;;;5069749;28;20021;-51
2022/04/30 06:38:02;;;;;;;39.78;20.30;;;10.90;99.90;;;;;;5069273;28;20036;-50
2022/04/30 06:40:28;;;;;;;40.83;19.05;;;11.00;99.90;;;;;;5069136;28;20034;-51
2022/04/30 06:42:54;;;;;;;38.95;19.63;;;11.10;99.90;;;;;;5069700;28;20040;-50
2022/04/30 06:45:19;;;;;;;38.75;19.63;;;11.20;99.90;;;;;;5068876;28;20025;-50
2022/04/30 06:47:45;;;;;;;32.47;16.17;;;11.30;99.90;;;;;;5051053;28;20081;-50
2022/04/30 06:50:11;;;;;;;31.05;14.65;;;11.40;99.90;;;;;;5068465;28;20029;-49
2022/04/30 06:57:07;;;;;;;26.17;13.88;;;11.60;99.90;;;;;;5069244;28;20036;-49
2022/04/30 06:58:09;;;;;;;27.05;14.20;;;11.90;99.90;;;;;;5067741;28;19978;-49
2022/04/30 07:03:23;;;;;;;27.75;14.23;;;12.30;99.90;;;;;;5066873;28;20471;-50
2022/04/30 07:05:52;;;;;;;27.02;14.65;;;12.50;99.90;;;;;;5068015;28;20083;-51
2022/04/30 07:08:18;;;;;;;28.02;13.57;;;12.60;99.90;;;;;;5068220;28;20021;-50
2022/04/30 07:10:44;;;;;;;24.30;12.10;;;12.70;99.90;;;;;;5068139;28;20017;-50
2022/04/30 07:13:10;;;;;;;24.35;12.07;;;12.80;99.40;;;;;;5068099;28;20539;-49
2022/04/30 07:15:35;;;;;;;17.70;10.45;;;12.90;96.40;;;;;;5068007;28;20474;-50
2022/04/30 07:18:01;;;;;;;19.73;9.93;;;13.10;96.00;;;;;;5068003;28;20047;-50
2022/04/30 07:20:27;;;;;;;18.40;9.15;;;13.20;94.80;;;;;;5067666;28;20055;-50
2022/04/30 07:22:52;;;;;;;20.63;10.15;;;13.30;92.60;;;;;;5068044;28;20033;-51
2022/04/30 07:25:18;;;;;;;17.50;8.77;;;13.40;92.10;;;;;;5067581;28;20020;-51
2022/04/30 07:27:44;;;;;;;16.42;8.13;;;13.50;92.30;;;;;;5068107;28;20050;-51
2022/04/30 07:30:10;;;;;;;22.20;8.20;;;13.60;91.30;;;;;;5067625;28;20024;-50
2022/04/30 07:32:39;;;;;;;13.27;7.22;;;13.80;90.90;;;;;;5067594;28;20380;-49
2022/04/30 07:35:06;;;;;;;14.40;7.00;;;13.90;87.80;;;;;;5069183;28;20052;-50
2022/04/30 07:37:31;;;;;;;14.90;6.70;;;14.10;86.10;;;;;;5071475;28;20065;-51
2022/04/30 07:39:57;;;;;;;12.85;7.03;;;14.00;85.10;;;;;;5071385;28;20044;-49
2022/04/30 07:42:22;;;;;;;14.25;7.22;;;14.10;77.90;;;;;;5071148;28;20082;-51
2022/04/30 07:44:48;;;;;;;16.27;7.78;;;14.20;80.40;;;;;;5071247;28;20065;-50
2022/04/30 07:47:14;;;;;;;16.90;7.85;;;14.30;78.40;;;;;;5071508;28;20469;-50
2022/04/30 07:49:41;;;;;;;12.80;6.90;;;14.40;75.90;;;;;;5069201;28;20383;-52
2022/04/30 07:52:07;;;;;;;16.92;8.15;;;14.50;76.50;;;;;;5064753;28;20050;-51
2022/04/30 07:54:33;;;;;;;16.02;8.10;;;14.60;74.70;;;;;;5070535;28;20029;-50
2022/04/30 07:57:01;;;;;;;15.23;8.40;;;14.60;75.50;;;;;;5071183;28;20047;-50
2022/04/30 07:59:28;;;;;;;19.08;7.47;;;14.70;71.50;;;;;;5070850;28;20028;-49
2022/04/30 08:01:54;;;;;;;12.63;6.22;;;14.80;72.60;;;;;;5071822;28;20127;-49
2022/04/30 08:04:20;;;;;;;16.10;7.75;;;14.90;73.20;;;;;;5070431;28;20117;-49
2022/04/30 08:06:45;;;;;;;15.40;8.20;;;15.10;73.10;;;;;;5070294;28;20158;-51
2022/04/30 08:09:11;;;;;;;15.82;7.35;;;15.30;75.70;;;;;;5070968;28;20043;-51
2022/04/30 08:11:37;;;;;;;16.42;7.68;;;15.50;71.20;;;;;;5070715;28;20031;-53
2022/04/30 08:14:03;;;;;;;16.27;8.45;;;15.50;69.80;;;;;;5070835;28;20044;-51
2022/04/30 08:16:29;;;;;;;77.53;12.13;;;15.50;67.70;;;;;;5070624;28;20103;-51
2022/04/30 08:18:56;;;;;;;18.10;8.38;;;15.40;68.00;;;;;;5070056;28;20818;-50
2022/04/30 08:21:22;;;;;;;16.40;8.52;;;15.50;67.80;;;;;;5070252;28;20115;-50
2022/04/30 08:23:48;;;;;;;16.90;8.80;;;15.60;67.10;;;;;;5070330;28;20142;-49
2022/04/30 08:26:14;;;;;;;17.50;7.60;;;15.70;68.50;;;;;;5070773;28;20025;-50
2022/04/30 08:28:39;;;;;;;16.70;7.82;;;15.80;66.90;;;;;;5052469;28;20460;-51
2022/04/30 08:31:05;;;;;;;13.57;7.22;;;15.90;65.30;;;;;;5070658;28;20475;-51
2022/04/30 08:33:31;;;;;;;17.52;7.78;;;15.90;65.60;;;;;;5069928;28;20106;-52
2022/04/30 08:35:56;;;;;;;17.42;7.60;;;16.00;66.20;;;;;;5070152;28;20013;-52
2022/04/30 08:38:22;;;;;;;17.73;6.65;;;16.10;67.50;;;;;;5070581;28;20021;-51
2022/04/30 08:40:48;;;;;;;17.27;6.55;;;16.10;66.20;;;;;;5069677;28;20067;-50
2022/04/30 08:43:16;;;;;;;15.95;6.95;;;16.20;65.60;;;;;;5070809;28;20032;-51
2022/04/30 08:45:42;;;;;;;;;;;16.20;64.10;;;;;;5069886;28;20023;-50
2022/04/30 08:48:11;;;;;;;18.48;7.10;;;16.30;64.50;;;;;;5069126;28;19908;-50
2022/04/30 08:50:38;;;;;;;18.23;7.03;;;16.50;62.70;;;;;;5069934;28;20056;-51
2022/04/30 08:53:04;;;;;;;14.40;6.68;;;16.60;65.10;;;;;;5067259;28;20031;-51
2022/04/30 08:55:29;;;;;;;14.57;6.40;;;16.60;61.00;;;;;;5051567;28;20036;-51
2022/04/30 08:57:56;;;;;;;17.10;8.13;;;16.60;62.00;;;;;;5069535;28;20031;-51
2022/04/30 09:00:21;;;;;;;15.77;8.02;;;16.50;60.40;;;;;;5070140;28;20052;-51
2022/04/30 09:02:50;;;;;;;18.90;7.10;;;16.50;63.60;;;;;;5069765;28;20064;-51
2022/04/30 09:05:16;;;;;;;18.75;7.32;;;16.60;64.80;;;;;;5067643;28;20017;-51
2022/04/30 09:07:51;;;;;;;14.60;8.18;;;16.70;63.50;;;;;;5070764;28;20071;-51
2022/04/30 09:10:25;;;;;;;21.83;8.75;;;16.70;62.40;;;;;;5070449;28;20106;-51
2022/04/30 09:12:52;;;;;;;15.63;8.70;;;16.70;59.90;;;;;;5070266;28;20039;-49
2022/04/30 09:15:18;;;;;;;16.73;8.90;;;16.70;60.10;;;;;;5070752;28;20411;-51
2022/04/30 09:18:05;;;;;;;17.13;7.93;;;16.60;62.60;;;;;;5070402;28;20042;-51
2022/04/30 09:20:40;;;;;;;20.40;7.15;;;16.70;63.20;;;;;;5070619;28;20067;-50
2022/04/30 09:23:06;;;;;;;19.13;7.22;;;16.70;60.60;;;;;;5070824;28;20036;-49
2022/04/30 09:25:31;;;;;;;14.88;7.00;;;16.60;62.30;;;;;;5070497;28;20123;-50
2022/04/30 09:27:57;;;;;;;13.93;7.47;;;16.80;63.30;;;;;;5069152;28;20411;-52
2022/04/30 09:30:25;;;;;;;54.20;34.80;;;16.80;63.60;;;;;;5068690;28;20506;-49
2022/04/30 09:33:06;;;;;;;22.10;11.18;;;16.90;63.50;;;;;;5069971;28;20115;-51
2022/04/30 09:38:20;;;;;;;13.35;7.60;;;16.90;62.40;;;;;;5071120;28;20036;-51
2022/04/30 09:41:00;;;;;;;16.52;7.45;;;16.80;59.30;;;;;;5070013;28;20521;-50
2022/04/30 09:43:34;;;;;;;17.85;6.93;;;16.90;62.60;;;;;;5067047;28;20039;-51
2022/04/30 09:46:00;;;;;;;16.65;7.70;;;16.90;60.20;;;;;;5068991;28;20104;-50
2022/04/30 09:53:59;;;;;;;22.13;7.78;;;17.20;61.10;;;;;;5068272;28;20035;-50
2022/04/30 09:56:33;;;;;;;;;;;17.30;60.50;;;;;;5070437;28;20043;-50
2022/04/30 09:59:06;;;;;;;14.23;6.43;;;17.50;59.90;;;;;;5069117;28;19909;-49
2022/04/30 10:01:34;;;;;;;13.57;7.53;;;17.50;57.70;;;;;;5069768;28;20127;-51
2022/04/30 10:04:06;;;;;;;15.02;6.50;;;17.40;56.10;;;;;;5069849;28;20108;-50
2022/04/30 10:06:36;;;;;;;14.82;7.05;;;17.50;60.40;;;;;;5070238;28;20035;-51
2022/04/30 10:09:08;;;;;;;16.42;7.13;;;17.60;56.50;;;;;;5069595;28;20551;-50
2022/04/30 10:11:56;;;;;;;13.80;6.55;;;17.40;55.20;;;;;;5070204;28;20040;-50
2022/04/30 10:14:31;;;;;;;;;;;17.30;55.80;;;;;;5069139;28;20021;-51
2022/04/30 10:17:16;;;;;;;14.15;7.47;;;17.40;55.80;;;;;;5070023;28;19921;-50
2022/04/30 10:19:59;;;;;;;14.15;7.20;;;17.50;57.80;;;;;;5069630;28;20097;-50
2022/04/30 10:22:26;;;;;;;13.68;6.93;;;17.40;54.70;;;;;;5068729;28;20131;-50
2022/04/30 10:24:56;;;;;;;15.43;7.30;;;17.50;59.80;;;;;;5069161;28;20021;-52
2022/04/30 10:27:22;;;;;;;14.20;7.20;;;17.60;56.10;;;;;;5069150;28;20086;-50
2022/04/30 10:30:18;;;;;;;18.08;7.35;;;17.80;56.40;;;;;;5069182;28;20017;-50
2022/04/30 10:32:58;;;;;;;18.08;7.78;;;17.80;57.00;;;;;;5067021;28;20037;-52
2022/04/30 10:35:35;;;;;;;16.60;8.05;;;17.90;57.00;;;;;;5066681;28;20472;-51
2022/04/30 10:38:10;;;;;;;18.65;7.07;;;18.00;56.50;;;;;;5066571;28;20102;-50
2022/04/30 10:40:41;;;;;;;27.92;9.52;;;18.10;58.10;;;;;;5066751;28;20036;-51
2022/04/30 10:43:27;;;;;;;15.48;7.60;;;18.10;56.20;;;;;;5067956;28;20158;-49
2022/04/30 10:45:55;;;;;;;13.23;6.97;;;18.00;56.00;;;;;;5067852;28;20494;-53
2022/04/30 10:48:22;;;;;;;15.38;7.10;;;18.00;57.50;;;;;;5068995;28;20029;-51
2022/04/30 10:51:08;;;;;;;30.38;7.97;;;18.00;56.20;;;;;;5050584;28;20016;-50
2022/04/30 10:53:38;;;;;;;16.33;6.95;;;18.00;58.20;;;;;;5048357;28;20090;-52
2022/04/30 10:56:07;;;;;;;14.82;7.80;;;18.10;58.60;;;;;;5034877;28;20115;-50
2022/04/30 10:58:34;;;;;;;13.82;7.20;;;18.10;57.70;;;;;;5069463;28;20033;-53
2022/04/30 11:01:14;;;;;;;14.57;7.68;;;17.90;55.20;;;;;;5068724;28;20025;-50
2022/04/30 11:03:44;;;;;;;13.45;6.78;;;17.90;56.60;;;;;;5069497;28;20029;-52
2022/04/30 11:06:11;;;;;;;15.98;7.25;;;18.00;57.20;;;;;;5069228;28;20548;-51
2022/04/30 11:08:37;;;;;;;16.35;7.28;;;17.90;56.80;;;;;;5069022;28;20146;-52
2022/04/30 11:11:03;;;;;;;15.00;7.43;;;17.70;56.60;;;;;;5054157;28;20035;-50
2022/04/30 11:13:29;;;;;;;12.95;7.47;;;17.80;56.30;;;;;;5071686;28;20029;-51
2022/04/30 11:15:59;;;;;;;18.42;7.35;;;17.80;58.50;;;;;;5073071;28;20387;-51
2022/04/30 11:18:24;;;;;;;13.32;7.22;;;17.90;58.50;;;;;;5064460;28;20459;-50
2022/04/30 11:20:59;;;;;;;16.92;7.57;;;17.90;57.10;;;;;;5071596;28;20039;-51
2022/04/30 11:23:24;;;;;;;12.93;7.07;;;17.90;59.70;;;;;;5070983;28;20032;-51
2022/04/30 11:25:51;;;;;;;14.35;6.70;;;18.00;57.20;;;;;;5071995;28;20490;-50
2022/04/30 11:28:17;;;;;;;13.05;6.75;;;18.00;57.00;;;;;;5073363;28;20035;-50
2022/04/30 11:30:45;;;;;;;14.00;6.57;;;18.10;58.90;;;;;;5071210;28;20025;-51
2022/04/30 11:33:12;;;;;;;14.27;6.53;;;18.20;56.90;;;;;;5072590;28;20499;-51
2022/04/30 11:35:38;;;;;;;11.80;6.28;;;18.30;58.30;;;;;;5072705;28;20501;-50
2022/04/30 11:38:08;;;;;;;19.30;7.70;;;18.40;57.70;;;;;;5072914;28;20029;-50
2022/04/30 11:40:35;;;;;;;13.85;7.30;;;18.50;55.70;;;;;;5072516;28;20131;-50
2022/04/30 11:43:02;;;;;;;13.75;7.20;;;18.30;53.60;;;;;;5072971;28;20029;-51
2022/04/30 11:45:32;;;;;;;14.77;6.78;;;18.40;54.40;;;;;;5071850;28;20029;-52
2022/04/30 11:47:59;;;;;;;18.95;7.60;;;18.40;53.00;;;;;;5072452;28;20029;-50
2022/04/30 11:50:26;;;;;;;20.38;8.35;;;18.40;56.30;;;;;;5072061;28;20111;-49
2022/04/30 11:52:53;;;;;;;17.48;8.35;;;18.60;57.70;;;;;;5071298;28;20098;-51
2022/04/30 11:55:22;;;;;;;17.65;8.52;;;18.50;54.60;;;;;;5071305;28;20031;-51
2022/04/30 11:57:49;;;;;;;14.63;6.95;;;18.60;55.60;;;;;;5068237;28;20107;-50
2022/04/30 12:00:17;;;;;;;15.73;7.00;;;18.60;56.00;;;;;;5052894;28;20024;-50
2022/04/30 12:02:47;;;;;;;13.82;7.45;;;18.80;57.80;;;;;;5071044;28;20127;-49
2022/04/30 12:05:13;;;;;;;11.98;6.57;;;18.70;54.40;;;;;;5071283;28;20039;-52
2022/04/30 12:07:42;;;;;;;16.42;7.38;;;18.80;57.20;;;;;;5071313;28;20551;-51
2022/04/30 12:10:19;;;;;;;13.85;7.00;;;18.90;54.70;;;;;;5067740;28;20020;-51
2022/04/30 12:12:45;;;;;;;16.60;7.63;;;19.20;56.70;;;;;;5070935;28;20109;-52
2022/04/30 12:15:18;;;;;;;15.85;8.15;;;19.30;55.20;;;;;;5070616;28;20077;-50
2022/04/30 12:17:44;;;;;;;19.95;7.70;;;19.20;56.00;;;;;;5070520;28;20195;-50
2022/04/30 12:26:00;;;;;;;10.75;6.38;;;19.20;52.80;;;;;;5070003;28;20536;-50
2022/04/30 12:28:26;;;;;;;11.90;5.85;;;19.10;53.50;;;;;;5069295;28;20024;-50
2022/04/30 12:30:53;;;;;;;12.82;6.13;;;19.30;54.20;;;;;;5070365;28;20040;-50
2022/04/30 12:33:19;;;;;;;15.07;5.80;;;19.30;52.30;;;;;;5070066;28;20786;-51
2022/04/30 12:35:53;;;;;;;18.63;5.68;;;19.20;54.00;;;;;;5070522;28;20055;-50
2022/04/30 12:38:19;;;;;;;11.32;5.70;;;19.40;55.50;;;;;;5070345;28;20491;-51
2022/04/30 12:40:47;;;;;;;11.98;6.07;;;19.40;52.60;;;;;;5070014;28;20040;-52
2022/04/30 12:43:13;;;;;;;14.00;6.78;;;19.40;52.90;;;;;;5070272;28;20024;-50
2022/04/30 12:45:43;;;;;;;12.10;6.67;;;18.90;49.00;;;;;;5070142;28;20023;-51
2022/04/30 12:48:09;;;;;;;14.00;7.22;;;18.90;54.10;;;;;;5070365;28;20052;-51
2022/04/30 12:50:36;;;;;;;14.00;7.07;;;18.90;50.80;;;;;;5070009;28;20024;-51
2022/04/30 12:53:02;;;;;;;14.05;6.68;;;19.00;53.20;;;;;;5067184;28;20259;-52
2022/04/30 12:55:31;;;;;;;11.65;6.90;;;19.30;54.00;;;;;;5070112;28;20510;-51
2022/04/30 12:57:57;;;;;;;14.55;7.10;;;19.70;55.90;;;;;;5069846;28;20020;-50
2022/04/30 13:00:23;;;;;;;14.48;6.95;;;20.20;53.10;;;;;;5069762;28;20511;-51
2022/04/30 13:02:49;;;;;;;13.25;6.32;;;20.30;52.10;;;;;;5069364;28;20044;-51
2022/04/30 13:05:16;;;;;;;14.07;6.72;;;20.70;50.00;;;;;;5052097;28;20044;-50
2022/04/30 13:07:43;;;;;;;11.02;6.50;;;21.00;51.20;;;;;;5066982;28;20085;-51
2022/04/30 13:15:40;;;;;;;14.00;7.15;;;21.30;52.50;;;;;;5069549;28;20085;-52
2022/04/30 13:18:07;;;;;;;13.35;6.35;;;21.80;47.90;;;;;;5069583;28;20033;-50
2022/04/30 13:20:34;;;;;;;;;;;21.60;48.00;;;;;;5069542;28;20032;-51
2022/04/30 13:22:59;;;;;;;11.52;6.30;;;21.80;48.60;;;;;;5069899;28;19973;-50
2022/04/30 13:25:26;;;;;;;13.57;5.80;;;21.80;47.30;;;;;;5070657;28;20040;-50
2022/04/30 13:27:52;;;;;;;13.20;6.50;;;22.00;47.60;;;;;;5069848;28;20028;-52